Dauphin Barker Airport
CYDN : now visible

Airfield :











YOU CAN JOIN US ON...

 
LOGIN :

Register | Disclaimer

   EN    FR    IT 

 









Legend :    VFR   Marginal VFR   IFR   Intensive IFR   Very Intensive IFR
Visi :
Ceiling :
>= 8 km
>= 3000ft
5 to 8 km
1000 to 3000 ft
1500m to 5 km
500 to 1000 ft
800 to 1500m
200 to 500 ft
< 800m
< 200 ft
Symbols :   Thunderstorms  Fog  Heavy snow  Heavy precipitations  Wind > 20 kt






- Airport Elevation : 999 ft
- IATA code : YDN


CYDN - Dauphin Barker

CURRENT METAR :
  • 291600Z AUTO 01008G16KT 9SM OVC032 10/02 A3028 RMK SLP266

EXPIRED METARs :
  • 291500Z AUTO 36014KT 9SM BKN036 09/02 A3028 RMK SLP264
  • 291425Z AUTO 36014KT 9SM SCT020 SCT025 OVC034 08/03 A3027 RMK SLP263
  • 291418Z AUTO 36013G18KT 9SM SCT018 BKN025 OVC034 08/03 A3027 RMK SLP263

TAF TAF CYDN
Valid from the 29 at 12:00 until the 30 at 00:00 UTC


291144Z 2912/2924 VRB03KT P6SM FEW020 OVC030
TEMPO 2912/2915 2SM BR BKN020 OVC030
BECMG 2912/2914 34005KT
FM291500 34010KT P6SM SCT030
TEMPO 2915/2921 BKN030
FM292100 02015KT P6SM FEW060 RMK FCST BASED ON AUTO OBS. NXT FCST BY 291800Z
CZWG FIR / North America



MET'MAP, your aeronautical weather chart ! - Copyright ORBIFLY December 2007 - Disclaimer

ORBIFLY MET'MAP TEAM :

Programming & Development : Alexandra Zaïnal
Concept & original design : Baudouin d'Aumeries
Assistance for programming : Marc-Olivier Méhu
Technical & hardware support : Manuel Goepfert

Contact : metmap@orbifly.com




SOURCES & CREDITS :

   NOAA       Earth
Advisory